sensor_id;sensor_type;location;lat;lon;timestamp;P1;durP1;ratioP1;P2;durP2;ratioP2
75135;SDS011;63707;52.212;9.540;2024-03-08T00:00:58;50.42;;;21.95;;
75135;SDS011;63707;52.212;9.540;2024-03-08T00:03:24;54.95;;;22.33;;
75135;SDS011;63707;52.212;9.540;2024-03-08T00:05:49;53.30;;;23.27;;
75135;SDS011;63707;52.212;9.540;2024-03-08T00:08:15;50.88;;;22.15;;
75135;SDS011;63707;52.212;9.540;2024-03-08T00:10:42;48.88;;;21.35;;
75135;SDS011;63707;52.212;9.540;2024-03-08T00:13:07;43.88;;;22.00;;
75135;SDS011;63707;52.212;9.540;2024-03-08T00:15:33;52.08;;;21.85;;
75135;SDS011;63707;52.212;9.540;2024-03-08T00:17:58;49.95;;;21.90;;
75135;SDS011;63707;52.212;9.540;2024-03-08T00:20:24;48.70;;;21.92;;
75135;SDS011;63707;52.212;9.540;2024-03-08T00:22:49;52.55;;;22.38;;
75135;SDS011;63707;52.212;9.540;2024-03-08T00:25:16;51.45;;;22.55;;
75135;SDS011;63707;52.212;9.540;2024-03-08T00:27:43;52.22;;;22.67;;
75135;SDS011;63707;52.212;9.540;2024-03-08T00:30:08;48.67;;;21.85;;
75135;SDS011;63707;52.212;9.540;2024-03-08T00:32:35;50.00;;;22.48;;
75135;SDS011;63707;52.212;9.540;2024-03-08T00:35:01;47.75;;;20.80;;
75135;SDS011;63707;52.212;9.540;2024-03-08T00:37:27;49.30;;;21.65;;
75135;SDS011;63707;52.212;9.540;2024-03-08T00:39:53;52.47;;;21.55;;
75135;SDS011;63707;52.212;9.540;2024-03-08T00:42:19;54.70;;;23.80;;
75135;SDS011;63707;52.212;9.540;2024-03-08T00:44:46;46.45;;;22.20;;
75135;SDS011;63707;52.212;9.540;2024-03-08T00:47:13;49.25;;;22.38;;
75135;SDS011;63707;52.212;9.540;2024-03-08T00:49:41;48.13;;;20.77;;
75135;SDS011;63707;52.212;9.540;2024-03-08T00:52:07;51.15;;;22.42;;
75135;SDS011;63707;52.212;9.540;2024-03-08T00:54:33;49.45;;;21.50;;
75135;SDS011;63707;52.212;9.540;2024-03-08T00:56:58;52.78;;;22.67;;
75135;SDS011;63707;52.212;9.540;2024-03-08T00:59:25;54.05;;;23.02;;
75135;SDS011;63707;52.212;9.540;2024-03-08T01:01:52;57.78;;;22.55;;
75135;SDS011;63707;52.212;9.540;2024-03-08T01:04:17;49.22;;;22.40;;
75135;SDS011;63707;52.212;9.540;2024-03-08T01:06:44;50.90;;;22.15;;
75135;SDS011;63707;52.212;9.540;2024-03-08T01:09:12;54.22;;;23.38;;
75135;SDS011;63707;52.212;9.540;2024-03-08T01:11:38;57.38;;;23.00;;
75135;SDS011;63707;52.212;9.540;2024-03-08T01:14:03;58.53;;;23.92;;
75135;SDS011;63707;52.212;9.540;2024-03-08T01:16:29;58.58;;;25.27;;
75135;SDS011;63707;52.212;9.540;2024-03-08T01:18:55;53.78;;;23.58;;
75135;SDS011;63707;52.212;9.540;2024-03-08T01:21:21;55.25;;;24.25;;
75135;SDS011;63707;52.212;9.540;2024-03-08T01:23:47;53.13;;;23.98;;
75135;SDS011;63707;52.212;9.540;2024-03-08T01:26:12;54.42;;;23.50;;
75135;SDS011;63707;52.212;9.540;2024-03-08T01:28:40;57.53;;;23.70;;
75135;SDS011;63707;52.212;9.540;2024-03-08T01:31:05;59.58;;;22.77;;
75135;SDS011;63707;52.212;9.540;2024-03-08T01:33:31;55.70;;;24.17;;
75135;SDS011;63707;52.212;9.540;2024-03-08T01:35:58;56.22;;;22.70;;
75135;SDS011;63707;52.212;9.540;2024-03-08T01:38:23;61.20;;;23.83;;
75135;SDS011;63707;52.212;9.540;2024-03-08T01:40:49;56.83;;;23.02;;
75135;SDS011;63707;52.212;9.540;2024-03-08T01:43:16;57.47;;;23.25;;
75135;SDS011;63707;52.212;9.540;2024-03-08T01:45:43;61.72;;;24.45;;
75135;SDS011;63707;52.212;9.540;2024-03-08T01:48:08;58.75;;;24.42;;
75135;SDS011;63707;52.212;9.540;2024-03-08T01:50:35;57.15;;;24.45;;
75135;SDS011;63707;52.212;9.540;2024-03-08T01:53:02;54.40;;;24.02;;
75135;SDS011;63707;52.212;9.540;2024-03-08T01:55:28;55.90;;;22.83;;
75135;SDS011;63707;52.212;9.540;2024-03-08T01:57:54;52.92;;;22.80;;
75135;SDS011;63707;52.212;9.540;2024-03-08T02:00:20;57.22;;;23.23;;
75135;SDS011;63707;52.212;9.540;2024-03-08T02:02:46;61.97;;;24.70;;
75135;SDS011;63707;52.212;9.540;2024-03-08T02:05:14;63.53;;;25.02;;
75135;SDS011;63707;52.212;9.540;2024-03-08T02:07:40;60.22;;;24.30;;
75135;SDS011;63707;52.212;9.540;2024-03-08T02:10:10;58.45;;;24.77;;
75135;SDS011;63707;52.212;9.540;2024-03-08T02:12:37;57.75;;;23.85;;
75135;SDS011;63707;52.212;9.540;2024-03-08T02:15:03;55.50;;;24.48;;
75135;SDS011;63707;52.212;9.540;2024-03-08T02:17:31;59.30;;;23.90;;
75135;SDS011;63707;52.212;9.540;2024-03-08T02:19:58;60.90;;;25.15;;
75135;SDS011;63707;52.212;9.540;2024-03-08T02:22:27;63.63;;;24.88;;
75135;SDS011;63707;52.212;9.540;2024-03-08T02:24:53;57.85;;;23.60;;
75135;SDS011;63707;52.212;9.540;2024-03-08T02:27:23;59.83;;;24.00;;
75135;SDS011;63707;52.212;9.540;2024-03-08T02:29:48;62.92;;;24.08;;
75135;SDS011;63707;52.212;9.540;2024-03-08T02:32:14;53.97;;;23.75;;
75135;SDS011;63707;52.212;9.540;2024-03-08T02:34:40;63.15;;;24.48;;
75135;SDS011;63707;52.212;9.540;2024-03-08T02:37:06;55.67;;;23.70;;
75135;SDS011;63707;52.212;9.540;2024-03-08T02:39:33;62.55;;;24.35;;
75135;SDS011;63707;52.212;9.540;2024-03-08T02:41:59;63.17;;;24.40;;
75135;SDS011;63707;52.212;9.540;2024-03-08T02:44:24;68.18;;;25.65;;
75135;SDS011;63707;52.212;9.540;2024-03-08T02:46:50;62.08;;;25.27;;
75135;SDS011;63707;52.212;9.540;2024-03-08T02:49:15;61.45;;;24.65;;
75135;SDS011;63707;52.212;9.540;2024-03-08T02:51:41;64.80;;;25.35;;
75135;SDS011;63707;52.212;9.540;2024-03-08T02:54:06;66.32;;;26.10;;
75135;SDS011;63707;52.212;9.540;2024-03-08T02:56:34;69.55;;;26.23;;
75135;SDS011;63707;52.212;9.540;2024-03-08T02:59:00;66.15;;;27.35;;
75135;SDS011;63707;52.212;9.540;2024-03-08T03:01:25;60.33;;;24.70;;
75135;SDS011;63707;52.212;9.540;2024-03-08T03:03:51;61.53;;;25.55;;
75135;SDS011;63707;52.212;9.540;2024-03-08T03:06:17;59.22;;;24.88;;
75135;SDS011;63707;52.212;9.540;2024-03-08T03:08:46;64.50;;;24.60;;
75135;SDS011;63707;52.212;9.540;2024-03-08T03:11:11;63.53;;;26.25;;
75135;SDS011;63707;52.212;9.540;2024-03-08T03:13:39;70.40;;;25.73;;
75135;SDS011;63707;52.212;9.540;2024-03-08T03:16:07;66.25;;;26.85;;
75135;SDS011;63707;52.212;9.540;2024-03-08T03:18:33;59.83;;;25.38;;
75135;SDS011;63707;52.212;9.540;2024-03-08T03:20:58;62.20;;;24.25;;
75135;SDS011;63707;52.212;9.540;2024-03-08T03:23:23;66.95;;;25.58;;
75135;SDS011;63707;52.212;9.540;2024-03-08T03:25:51;64.03;;;26.08;;
75135;SDS011;63707;52.212;9.540;2024-03-08T03:28:17;65.93;;;26.70;;
75135;SDS011;63707;52.212;9.540;2024-03-08T03:30:45;67.15;;;26.25;;
75135;SDS011;63707;52.212;9.540;2024-03-08T03:33:11;62.25;;;25.10;;
75135;SDS011;63707;52.212;9.540;2024-03-08T03:35:37;64.15;;;25.15;;
75135;SDS011;63707;52.212;9.540;2024-03-08T03:38:03;63.00;;;25.55;;
75135;SDS011;63707;52.212;9.540;2024-03-08T03:40:31;61.60;;;24.77;;
75135;SDS011;63707;52.212;9.540;2024-03-08T03:42:57;66.72;;;26.50;;
75135;SDS011;63707;52.212;9.540;2024-03-08T03:45:23;64.50;;;26.67;;
75135;SDS011;63707;52.212;9.540;2024-03-08T03:47:50;72.10;;;27.35;;
75135;SDS011;63707;52.212;9.540;2024-03-08T03:50:16;66.70;;;25.80;;
75135;SDS011;63707;52.212;9.540;2024-03-08T03:52:44;61.45;;;25.27;;
75135;SDS011;63707;52.212;9.540;2024-03-08T03:55:09;63.90;;;26.63;;
75135;SDS011;63707;52.212;9.540;2024-03-08T03:57:36;68.07;;;26.23;;
75135;SDS011;63707;52.212;9.540;2024-03-08T04:00:02;69.45;;;27.05;;
75135;SDS011;63707;52.212;9.540;2024-03-08T04:02:29;70.43;;;27.80;;
75135;SDS011;63707;52.212;9.540;2024-03-08T04:04:56;75.82;;;28.27;;
75135;SDS011;63707;52.212;9.540;2024-03-08T04:07:21;68.72;;;27.95;;
75135;SDS011;63707;52.212;9.540;2024-03-08T04:09:47;80.15;;;29.27;;
75135;SDS011;63707;52.212;9.540;2024-03-08T04:12:12;71.68;;;28.52;;
75135;SDS011;63707;52.212;9.540;2024-03-08T04:14:40;67.55;;;27.60;;
75135;SDS011;63707;52.212;9.540;2024-03-08T04:17:06;71.25;;;27.98;;
75135;SDS011;63707;52.212;9.540;2024-03-08T04:19:34;74.18;;;27.90;;
75135;SDS011;63707;52.212;9.540;2024-03-08T04:22:00;68.57;;;28.00;;
75135;SDS011;63707;52.212;9.540;2024-03-08T04:24:27;75.13;;;29.90;;
75135;SDS011;63707;52.212;9.540;2024-03-08T04:26:52;71.00;;;27.55;;
75135;SDS011;63707;52.212;9.540;2024-03-08T04:29:18;75.30;;;28.67;;
75135;SDS011;63707;52.212;9.540;2024-03-08T04:31:43;74.30;;;28.15;;
75135;SDS011;63707;52.212;9.540;2024-03-08T04:34:09;76.60;;;28.13;;
75135;SDS011;63707;52.212;9.540;2024-03-08T04:36:35;88.65;;;29.02;;
75135;SDS011;63707;52.212;9.540;2024-03-08T04:39:02;82.60;;;29.25;;
75135;SDS011;63707;52.212;9.540;2024-03-08T04:41:28;78.10;;;29.08;;
75135;SDS011;63707;52.212;9.540;2024-03-08T04:43:55;69.85;;;27.92;;
75135;SDS011;63707;52.212;9.540;2024-03-08T04:46:22;73.90;;;28.73;;
75135;SDS011;63707;52.212;9.540;2024-03-08T04:48:48;80.43;;;30.40;;
75135;SDS011;63707;52.212;9.540;2024-03-08T04:51:13;75.18;;;28.48;;
75135;SDS011;63707;52.212;9.540;2024-03-08T04:53:39;86.50;;;30.20;;
75135;SDS011;63707;52.212;9.540;2024-03-08T04:56:06;74.88;;;28.65;;
75135;SDS011;63707;52.212;9.540;2024-03-08T04:58:32;80.15;;;29.63;;
75135;SDS011;63707;52.212;9.540;2024-03-08T05:00:59;73.25;;;28.60;;
75135;SDS011;63707;52.212;9.540;2024-03-08T05:03:25;80.72;;;30.30;;
75135;SDS011;63707;52.212;9.540;2024-03-08T05:05:51;76.80;;;29.30;;
75135;SDS011;63707;52.212;9.540;2024-03-08T05:08:18;73.93;;;28.55;;
75135;SDS011;63707;52.212;9.540;2024-03-08T05:10:43;76.50;;;28.75;;
75135;SDS011;63707;52.212;9.540;2024-03-08T05:13:10;80.70;;;30.15;;
75135;SDS011;63707;52.212;9.540;2024-03-08T05:15:38;80.82;;;30.45;;
75135;SDS011;63707;52.212;9.540;2024-03-08T05:18:04;86.20;;;31.05;;
75135;SDS011;63707;52.212;9.540;2024-03-08T05:20:29;85.25;;;30.98;;
75135;SDS011;63707;52.212;9.540;2024-03-08T05:22:56;75.95;;;29.23;;
75135;SDS011;63707;52.212;9.540;2024-03-08T05:25:22;77.93;;;28.50;;
75135;SDS011;63707;52.212;9.540;2024-03-08T05:27:48;78.18;;;29.15;;
75135;SDS011;63707;52.212;9.540;2024-03-08T05:30:15;86.88;;;30.13;;
75135;SDS011;63707;52.212;9.540;2024-03-08T05:32:40;82.95;;;28.92;;
75135;SDS011;63707;52.212;9.540;2024-03-08T05:35:09;77.82;;;29.45;;
75135;SDS011;63707;52.212;9.540;2024-03-08T05:37:35;75.03;;;29.02;;
75135;SDS011;63707;52.212;9.540;2024-03-08T05:40:01;79.20;;;29.75;;
75135;SDS011;63707;52.212;9.540;2024-03-08T05:42:28;79.15;;;30.58;;
75135;SDS011;63707;52.212;9.540;2024-03-08T05:44:53;83.88;;;30.17;;
75135;SDS011;63707;52.212;9.540;2024-03-08T05:47:25;79.22;;;29.77;;
75135;SDS011;63707;52.212;9.540;2024-03-08T05:49:50;77.45;;;29.70;;
75135;SDS011;63707;52.212;9.540;2024-03-08T05:52:18;83.47;;;30.75;;
75135;SDS011;63707;52.212;9.540;2024-03-08T05:54:43;75.22;;;28.75;;
75135;SDS011;63707;52.212;9.540;2024-03-08T05:57:10;80.45;;;30.08;;
75135;SDS011;63707;52.212;9.540;2024-03-08T05:59:36;73.82;;;28.25;;
75135;SDS011;63707;52.212;9.540;2024-03-08T06:02:01;79.60;;;30.23;;
75135;SDS011;63707;52.212;9.540;2024-03-08T06:04:29;86.95;;;32.25;;
75135;SDS011;63707;52.212;9.540;2024-03-08T06:06:54;79.38;;;30.65;;
75135;SDS011;63707;52.212;9.540;2024-03-08T06:09:22;76.68;;;30.33;;
75135;SDS011;63707;52.212;9.540;2024-03-08T06:11:48;81.00;;;29.35;;
75135;SDS011;63707;52.212;9.540;2024-03-08T06:14:13;80.93;;;30.38;;
75135;SDS011;63707;52.212;9.540;2024-03-08T06:16:43;75.65;;;30.05;;
75135;SDS011;63707;52.212;9.540;2024-03-08T06:19:09;75.65;;;29.13;;
75135;SDS011;63707;52.212;9.540;2024-03-08T06:21:36;82.60;;;29.70;;
75135;SDS011;63707;52.212;9.540;2024-03-08T06:24:01;82.45;;;29.15;;
75135;SDS011;63707;52.212;9.540;2024-03-08T06:26:27;86.60;;;30.80;;
75135;SDS011;63707;52.212;9.540;2024-03-08T06:28:53;79.70;;;30.10;;
75135;SDS011;63707;52.212;9.540;2024-03-08T06:31:19;84.65;;;30.75;;
75135;SDS011;63707;52.212;9.540;2024-03-08T06:33:44;81.05;;;30.08;;
75135;SDS011;63707;52.212;9.540;2024-03-08T06:36:10;76.30;;;30.95;;
75135;SDS011;63707;52.212;9.540;2024-03-08T06:38:38;76.07;;;29.27;;
75135;SDS011;63707;52.212;9.540;2024-03-08T06:41:07;77.63;;;30.05;;
75135;SDS011;63707;52.212;9.540;2024-03-08T06:43:33;75.90;;;29.45;;
75135;SDS011;63707;52.212;9.540;2024-03-08T06:45:59;69.63;;;28.55;;
75135;SDS011;63707;52.212;9.540;2024-03-08T06:48:25;71.68;;;28.65;;
75135;SDS011;63707;52.212;9.540;2024-03-08T06:50:50;72.40;;;28.63;;
75135;SDS011;63707;52.212;9.540;2024-03-08T06:53:16;75.00;;;28.73;;
75135;SDS011;63707;52.212;9.540;2024-03-08T06:55:45;71.90;;;28.77;;
75135;SDS011;63707;52.212;9.540;2024-03-08T06:58:10;69.30;;;29.20;;
75135;SDS011;63707;52.212;9.540;2024-03-08T07:00:36;71.93;;;28.98;;
75135;SDS011;63707;52.212;9.540;2024-03-08T07:03:02;69.30;;;28.40;;
75135;SDS011;63707;52.212;9.540;2024-03-08T07:05:28;64.53;;;29.08;;
75135;SDS011;63707;52.212;9.540;2024-03-08T07:07:54;64.38;;;27.70;;
75135;SDS011;63707;52.212;9.540;2024-03-08T07:10:20;61.35;;;27.23;;
75135;SDS011;63707;52.212;9.540;2024-03-08T07:12:46;67.65;;;28.55;;
75135;SDS011;63707;52.212;9.540;2024-03-08T07:15:12;64.20;;;27.48;;
75135;SDS011;63707;52.212;9.540;2024-03-08T07:17:38;70.13;;;29.52;;
75135;SDS011;63707;52.212;9.540;2024-03-08T07:20:04;60.40;;;26.77;;
75135;SDS011;63707;52.212;9.540;2024-03-08T07:22:35;60.38;;;27.27;;
75135;SDS011;63707;52.212;9.540;2024-03-08T07:25:02;65.95;;;26.52;;
75135;SDS011;63707;52.212;9.540;2024-03-08T07:27:48;59.85;;;25.88;;
75135;SDS011;63707;52.212;9.540;2024-03-08T07:30:13;64.03;;;28.70;;
75135;SDS011;63707;52.212;9.540;2024-03-08T07:32:59;61.47;;;26.80;;
75135;SDS011;63707;52.212;9.540;2024-03-08T07:35:27;60.92;;;26.75;;
75135;SDS011;63707;52.212;9.540;2024-03-08T07:37:52;61.60;;;27.70;;
75135;SDS011;63707;52.212;9.540;2024-03-08T07:40:20;58.72;;;25.75;;
75135;SDS011;63707;52.212;9.540;2024-03-08T07:42:45;61.38;;;26.85;;
75135;SDS011;63707;52.212;9.540;2024-03-08T07:45:12;59.00;;;27.02;;
75135;SDS011;63707;52.212;9.540;2024-03-08T07:47:37;53.38;;;25.10;;
75135;SDS011;63707;52.212;9.540;2024-03-08T07:50:03;55.33;;;25.17;;
75135;SDS011;63707;52.212;9.540;2024-03-08T07:52:29;60.05;;;27.15;;
75135;SDS011;63707;52.212;9.540;2024-03-08T07:54:55;56.38;;;26.73;;
75135;SDS011;63707;52.212;9.540;2024-03-08T07:57:21;56.17;;;26.02;;
75135;SDS011;63707;52.212;9.540;2024-03-08T07:59:46;55.20;;;25.90;;
75135;SDS011;63707;52.212;9.540;2024-03-08T08:02:13;49.05;;;24.33;;
75135;SDS011;63707;52.212;9.540;2024-03-08T08:04:39;58.40;;;25.27;;
75135;SDS011;63707;52.212;9.540;2024-03-08T08:07:04;50.10;;;23.20;;
75135;SDS011;63707;52.212;9.540;2024-03-08T08:09:30;48.55;;;24.48;;
75135;SDS011;63707;52.212;9.540;2024-03-08T08:11:59;50.78;;;24.10;;
75135;SDS011;63707;52.212;9.540;2024-03-08T08:14:26;48.45;;;24.10;;
75135;SDS011;63707;52.212;9.540;2024-03-08T08:16:52;46.58;;;24.52;;
75135;SDS011;63707;52.212;9.540;2024-03-08T08:19:19;44.28;;;23.83;;
75135;SDS011;63707;52.212;9.540;2024-03-08T08:21:44;44.08;;;23.33;;
75135;SDS011;63707;52.212;9.540;2024-03-08T08:24:11;47.33;;;23.77;;
75135;SDS011;63707;52.212;9.540;2024-03-08T08:26:36;46.17;;;23.25;;
75135;SDS011;63707;52.212;9.540;2024-03-08T08:29:02;42.88;;;23.67;;
75135;SDS011;63707;52.212;9.540;2024-03-08T08:31:27;44.72;;;23.98;;
75135;SDS011;63707;52.212;9.540;2024-03-08T08:33:53;47.65;;;24.60;;
75135;SDS011;63707;52.212;9.540;2024-03-08T08:36:24;43.60;;;23.17;;
75135;SDS011;63707;52.212;9.540;2024-03-08T08:38:50;42.35;;;23.25;;
75135;SDS011;63707;52.212;9.540;2024-03-08T08:41:15;44.55;;;24.40;;
75135;SDS011;63707;52.212;9.540;2024-03-08T08:43:42;43.45;;;23.88;;
75135;SDS011;63707;52.212;9.540;2024-03-08T08:46:09;39.88;;;23.27;;
75135;SDS011;63707;52.212;9.540;2024-03-08T08:48:34;45.25;;;24.05;;
75135;SDS011;63707;52.212;9.540;2024-03-08T08:51:00;42.50;;;24.25;;
75135;SDS011;63707;52.212;9.540;2024-03-08T08:53:27;46.60;;;24.10;;
75135;SDS011;63707;52.212;9.540;2024-03-08T08:55:53;40.38;;;23.23;;
75135;SDS011;63707;52.212;9.540;2024-03-08T08:58:18;43.38;;;23.73;;
75135;SDS011;63707;52.212;9.540;2024-03-08T09:00:44;41.80;;;24.00;;
75135;SDS011;63707;52.212;9.540;2024-03-08T09:03:10;39.28;;;22.88;;
75135;SDS011;63707;52.212;9.540;2024-03-08T09:05:37;41.17;;;24.05;;
75135;SDS011;63707;52.212;9.540;2024-03-08T09:08:02;41.10;;;23.00;;
75135;SDS011;63707;52.212;9.540;2024-03-08T09:10:29;42.80;;;24.02;;
75135;SDS011;63707;52.212;9.540;2024-03-08T09:12:55;39.10;;;22.83;;
75135;SDS011;63707;52.212;9.540;2024-03-08T09:15:20;41.67;;;23.70;;
75135;SDS011;63707;52.212;9.540;2024-03-08T09:17:46;41.80;;;24.02;;
75135;SDS011;63707;52.212;9.540;2024-03-08T09:20:12;38.67;;;23.25;;
75135;SDS011;63707;52.212;9.540;2024-03-08T09:22:40;42.05;;;23.42;;
75135;SDS011;63707;52.212;9.540;2024-03-08T09:25:05;41.78;;;23.85;;
75135;SDS011;63707;52.212;9.540;2024-03-08T09:27:33;39.75;;;23.30;;
75135;SDS011;63707;52.212;9.540;2024-03-08T09:29:59;40.85;;;24.27;;
75135;SDS011;63707;52.212;9.540;2024-03-08T09:32:24;40.65;;;24.15;;
75135;SDS011;63707;52.212;9.540;2024-03-08T09:34:51;39.85;;;23.17;;
75135;SDS011;63707;52.212;9.540;2024-03-08T09:37:17;38.20;;;22.90;;
75135;SDS011;63707;52.212;9.540;2024-03-08T09:39:42;38.50;;;23.70;;
75135;SDS011;63707;52.212;9.540;2024-03-08T09:42:09;36.30;;;23.85;;
75135;SDS011;63707;52.212;9.540;2024-03-08T09:44:37;38.30;;;23.15;;
75135;SDS011;63707;52.212;9.540;2024-03-08T09:47:03;37.22;;;23.17;;
75135;SDS011;63707;52.212;9.540;2024-03-08T09:49:30;36.38;;;22.77;;
75135;SDS011;63707;52.212;9.540;2024-03-08T09:51:55;39.25;;;23.70;;
75135;SDS011;63707;52.212;9.540;2024-03-08T09:54:21;37.58;;;22.02;;
75135;SDS011;63707;52.212;9.540;2024-03-08T09:56:47;37.03;;;22.85;;
75135;SDS011;63707;52.212;9.540;2024-03-08T09:59:16;37.20;;;23.15;;
75135;SDS011;63707;52.212;9.540;2024-03-08T10:01:52;37.05;;;22.92;;
75135;SDS011;63707;52.212;9.540;2024-03-08T10:04:17;37.63;;;22.70;;
75135;SDS011;63707;52.212;9.540;2024-03-08T10:06:43;35.33;;;22.67;;
75135;SDS011;63707;52.212;9.540;2024-03-08T10:09:09;39.20;;;22.88;;
75135;SDS011;63707;52.212;9.540;2024-03-08T10:11:35;33.70;;;23.00;;
75135;SDS011;63707;52.212;9.540;2024-03-08T10:14:01;38.25;;;22.60;;
75135;SDS011;63707;52.212;9.540;2024-03-08T10:16:27;32.58;;;22.10;;
75135;SDS011;63707;52.212;9.540;2024-03-08T10:18:53;35.15;;;23.27;;
75135;SDS011;63707;52.212;9.540;2024-03-08T10:21:21;35.13;;;22.38;;
75135;SDS011;63707;52.212;9.540;2024-03-08T10:23:47;34.15;;;22.40;;
75135;SDS011;63707;52.212;9.540;2024-03-08T10:26:14;38.70;;;22.80;;
75135;SDS011;63707;52.212;9.540;2024-03-08T10:28:41;37.15;;;22.38;;
75135;SDS011;63707;52.212;9.540;2024-03-08T10:31:07;39.47;;;22.83;;
75135;SDS011;63707;52.212;9.540;2024-03-08T10:33:32;36.50;;;22.92;;
75135;SDS011;63707;52.212;9.540;2024-03-08T10:36:00;35.25;;;22.63;;
75135;SDS011;63707;52.212;9.540;2024-03-08T10:38:26;32.78;;;21.48;;
75135;SDS011;63707;52.212;9.540;2024-03-08T10:40:56;35.13;;;21.88;;
75135;SDS011;63707;52.212;9.540;2024-03-08T10:43:22;31.42;;;21.58;;
75135;SDS011;63707;52.212;9.540;2024-03-08T10:45:57;35.05;;;21.52;;
75135;SDS011;63707;52.212;9.540;2024-03-08T10:48:31;34.45;;;22.40;;
75135;SDS011;63707;52.212;9.540;2024-03-08T10:50:57;35.22;;;22.02;;
75135;SDS011;63707;52.212;9.540;2024-03-08T10:53:25;34.38;;;22.08;;
75135;SDS011;63707;52.212;9.540;2024-03-08T10:55:52;31.15;;;21.58;;
75135;SDS011;63707;52.212;9.540;2024-03-08T10:58:19;31.65;;;21.58;;
75135;SDS011;63707;52.212;9.540;2024-03-08T11:00:45;33.05;;;22.25;;
75135;SDS011;63707;52.212;9.540;2024-03-08T11:06:13;30.50;;;21.45;;
75135;SDS011;63707;52.212;9.540;2024-03-08T11:08:41;33.00;;;22.75;;
75135;SDS011;63707;52.212;9.540;2024-03-08T11:11:09;35.45;;;22.92;;
75135;SDS011;63707;52.212;9.540;2024-03-08T11:13:52;33.10;;;22.42;;
75135;SDS011;63707;52.212;9.540;2024-03-08T11:19:06;34.10;;;22.10;;
75135;SDS011;63707;52.212;9.540;2024-03-08T11:21:50;32.70;;;22.15;;
75135;SDS011;63707;52.212;9.540;2024-03-08T11:24:24;32.65;;;21.45;;
75135;SDS011;63707;52.212;9.540;2024-03-08T11:26:49;31.83;;;20.85;;
75135;SDS011;63707;52.212;9.540;2024-03-08T11:29:35;33.47;;;21.63;;
75135;SDS011;63707;52.212;9.540;2024-03-08T11:32:09;33.58;;;21.65;;
75135;SDS011;63707;52.212;9.540;2024-03-08T11:34:36;32.33;;;21.95;;
75135;SDS011;63707;52.212;9.540;2024-03-08T11:37:03;33.60;;;21.88;;
75135;SDS011;63707;52.212;9.540;2024-03-08T11:39:31;34.88;;;22.83;;
75135;SDS011;63707;52.212;9.540;2024-03-08T11:41:57;33.55;;;21.40;;
75135;SDS011;63707;52.212;9.540;2024-03-08T11:44:26;36.53;;;23.15;;
75135;SDS011;63707;52.212;9.540;2024-03-08T11:46:52;35.50;;;22.63;;
75135;SDS011;63707;52.212;9.540;2024-03-08T11:49:19;32.53;;;22.13;;
75135;SDS011;63707;52.212;9.540;2024-03-08T11:51:44;32.47;;;22.65;;
75135;SDS011;63707;52.212;9.540;2024-03-08T11:54:11;36.05;;;22.75;;
75135;SDS011;63707;52.212;9.540;2024-03-08T11:56:39;35.92;;;23.58;;
75135;SDS011;63707;52.212;9.540;2024-03-08T11:59:10;33.47;;;22.45;;
75135;SDS011;63707;52.212;9.540;2024-03-08T12:01:37;32.22;;;21.88;;
75135;SDS011;63707;52.212;9.540;2024-03-08T12:04:03;34.50;;;22.08;;
75135;SDS011;63707;52.212;9.540;2024-03-08T12:06:36;34.28;;;22.30;;
75135;SDS011;63707;52.212;9.540;2024-03-08T12:09:07;30.65;;;20.27;;
75135;SDS011;63707;52.212;9.540;2024-03-08T12:11:34;33.58;;;22.20;;
75135;SDS011;63707;52.212;9.540;2024-03-08T12:14:02;33.75;;;21.98;;
75135;SDS011;63707;52.212;9.540;2024-03-08T12:16:28;32.40;;;22.13;;
75135;SDS011;63707;52.212;9.540;2024-03-08T12:18:53;33.55;;;21.55;;
75135;SDS011;63707;52.212;9.540;2024-03-08T12:21:20;34.75;;;21.48;;
75135;SDS011;63707;52.212;9.540;2024-03-08T12:23:47;31.02;;;20.95;;
75135;SDS011;63707;52.212;9.540;2024-03-08T12:26:16;32.25;;;21.13;;
75135;SDS011;63707;52.212;9.540;2024-03-08T12:28:44;31.45;;;20.90;;
75135;SDS011;63707;52.212;9.540;2024-03-08T12:31:12;29.55;;;21.17;;
75135;SDS011;63707;52.212;9.540;2024-03-08T12:33:47;30.65;;;22.02;;
75135;SDS011;63707;52.212;9.540;2024-03-08T12:36:14;31.25;;;20.92;;
75135;SDS011;63707;52.212;9.540;2024-03-08T12:38:40;30.75;;;19.73;;
75135;SDS011;63707;52.212;9.540;2024-03-08T12:41:08;32.35;;;21.63;;
75135;SDS011;63707;52.212;9.540;2024-03-08T12:43:34;31.15;;;21.52;;
75135;SDS011;63707;52.212;9.540;2024-03-08T12:46:00;31.52;;;21.00;;
75135;SDS011;63707;52.212;9.540;2024-03-08T12:48:26;33.45;;;21.90;;
75135;SDS011;63707;52.212;9.540;2024-03-08T12:50:52;33.65;;;21.55;;
75135;SDS011;63707;52.212;9.540;2024-03-08T12:53:19;30.27;;;20.73;;
75135;SDS011;63707;52.212;9.540;2024-03-08T12:55:45;29.67;;;19.85;;
75135;SDS011;63707;52.212;9.540;2024-03-08T12:58:10;30.92;;;20.48;;
75135;SDS011;63707;52.212;9.540;2024-03-08T13:00:36;34.47;;;22.98;;
75135;SDS011;63707;52.212;9.540;2024-03-08T13:03:01;33.22;;;20.67;;
75135;SDS011;63707;52.212;9.540;2024-03-08T13:05:29;34.70;;;22.52;;
75135;SDS011;63707;52.212;9.540;2024-03-08T13:07:55;35.70;;;22.42;;
75135;SDS011;63707;52.212;9.540;2024-03-08T13:10:22;34.90;;;22.45;;
75135;SDS011;63707;52.212;9.540;2024-03-08T13:12:47;33.28;;;22.90;;
75135;SDS011;63707;52.212;9.540;2024-03-08T13:15:13;35.03;;;22.75;;
75135;SDS011;63707;52.212;9.540;2024-03-08T13:17:45;33.20;;;21.67;;
75135;SDS011;63707;52.212;9.540;2024-03-08T13:20:11;35.60;;;21.23;;
75135;SDS011;63707;52.212;9.540;2024-03-08T13:22:45;34.30;;;22.08;;
75135;SDS011;63707;52.212;9.540;2024-03-08T13:25:11;36.20;;;22.02;;
75135;SDS011;63707;52.212;9.540;2024-03-08T13:27:38;34.70;;;22.25;;
75135;SDS011;63707;52.212;9.540;2024-03-08T13:30:04;34.78;;;22.55;;
75135;SDS011;63707;52.212;9.540;2024-03-08T13:32:32;34.70;;;22.27;;
75135;SDS011;63707;52.212;9.540;2024-03-08T13:34:57;31.70;;;21.88;;
75135;SDS011;63707;52.212;9.540;2024-03-08T13:37:23;35.13;;;20.98;;
75135;SDS011;63707;52.212;9.540;2024-03-08T13:39:49;35.00;;;21.15;;
75135;SDS011;63707;52.212;9.540;2024-03-08T13:42:15;33.05;;;21.67;;
75135;SDS011;63707;52.212;9.540;2024-03-08T13:44:44;32.92;;;21.48;;
75135;SDS011;63707;52.212;9.540;2024-03-08T13:47:11;34.33;;;22.05;;
75135;SDS011;63707;52.212;9.540;2024-03-08T13:49:37;37.10;;;21.52;;
75135;SDS011;63707;52.212;9.540;2024-03-08T13:52:02;35.70;;;22.13;;
75135;SDS011;63707;52.212;9.540;2024-03-08T13:54:29;37.60;;;23.35;;
75135;SDS011;63707;52.212;9.540;2024-03-08T13:56:57;32.03;;;21.25;;
75135;SDS011;63707;52.212;9.540;2024-03-08T13:59:23;32.67;;;20.48;;
75135;SDS011;63707;52.212;9.540;2024-03-08T14:01:50;36.75;;;21.52;;
75135;SDS011;63707;52.212;9.540;2024-03-08T14:04:15;38.92;;;22.73;;
75135;SDS011;63707;52.212;9.540;2024-03-08T14:06:44;35.85;;;21.95;;
75135;SDS011;63707;52.212;9.540;2024-03-08T14:09:14;35.83;;;20.98;;
75135;SDS011;63707;52.212;9.540;2024-03-08T14:11:42;34.70;;;21.80;;
75135;SDS011;63707;52.212;9.540;2024-03-08T14:14:09;33.60;;;21.13;;
75135;SDS011;63707;52.212;9.540;2024-03-08T14:16:34;39.08;;;22.73;;
75135;SDS011;63707;52.212;9.540;2024-03-08T14:19:02;37.30;;;22.45;;
75135;SDS011;63707;52.212;9.540;2024-03-08T14:21:30;36.28;;;21.80;;
75135;SDS011;63707;52.212;9.540;2024-03-08T14:23:56;36.67;;;23.20;;